Terminal Aerodrome Forecast
Issued by NWS

Home | Current Version | Previous Version | Text Only | Print | Product List | Glossary On
Versions: 1 2 3 4 5 6 7 8 9 10 11 12 13 14 15 16 17 18 19 20 21 22 23 24 25 26 27 28 29 30
000
FTUS46 KSGX 300258 AAB
TAFSAN
TAF AMD
KSAN 300258Z 3003/3106 26008KT P6SM VCTS BKN015 BKN080CB
     FM300400 VRB05KT P6SM VCTS SCT015 BKN080CB BKN250
     FM300700 VRB05KT P6SM VCTS SCT015 OVC080CB
      TEMPO 3007/3011 BKN015 OVC080CB
     FM301200 VRB05KT P6SM VCTS SCT015 BKN080CB
     FM301700 29010KT P6SM FEW015 SCT100=

USA.gov is the U.S. government's official web portal to all federal, state and local government web resources and services.